createdAt,value
2018-06-27T00:00:06.281Z,55.00
2018-06-27T00:01:11.136Z,55.00
2018-06-27T00:02:15.992Z,55.00
2018-06-27T00:03:20.806Z,55.00
2018-06-27T00:04:25.755Z,55.00
2018-06-27T00:05:30.588Z,55.00
2018-06-27T00:06:35.682Z,55.00
2018-06-27T00:07:41.342Z,55.00
2018-06-27T00:08:46.300Z,55.00
2018-06-27T00:09:51.204Z,55.00
2018-06-27T00:10:56.169Z,55.00
2018-06-27T00:12:01.176Z,55.00
2018-06-27T00:13:06.119Z,55.00
2018-06-27T00:14:11.097Z,55.00
2018-06-27T00:15:16.107Z,55.00
2018-06-27T00:16:21.098Z,55.00
2018-06-27T00:17:26.059Z,55.00
2018-06-27T00:18:30.991Z,55.00
2018-06-27T00:19:36.048Z,55.00
2018-06-27T00:20:40.923Z,55.00
2018-06-27T00:21:45.801Z,55.00
2018-06-27T00:22:50.934Z,55.00
2018-06-27T00:23:55.908Z,55.00
2018-06-27T00:25:00.844Z,55.00
2018-06-27T00:26:05.795Z,55.00
2018-06-27T00:27:10.729Z,55.00
2018-06-27T00:28:15.781Z,55.00
2018-06-27T00:29:20.784Z,55.00
2018-06-27T00:30:25.755Z,55.00
2018-06-27T00:31:30.613Z,55.00
2018-06-27T00:32:35.716Z,55.00
2018-06-27T00:33:40.590Z,55.00
2018-06-27T00:34:45.476Z,55.00
2018-06-27T00:35:50.478Z,55.00
2018-06-27T00:36:55.392Z,55.00
2018-06-27T00:38:00.271Z,55.00
2018-06-27T00:39:05.158Z,55.00
2018-06-27T00:40:10.217Z,55.00
2018-06-27T00:41:15.310Z,55.00
2018-06-27T00:42:20.396Z,55.00
2018-06-27T00:43:25.570Z,55.00
2018-06-27T00:44:30.490Z,55.00
2018-06-27T00:45:35.478Z,55.00
2018-06-27T00:46:40.347Z,55.00
2018-06-27T00:47:45.346Z,55.00
2018-06-27T00:48:50.293Z,55.00
2018-06-27T00:49:55.231Z,55.00
2018-06-27T00:51:00.267Z,55.00
2018-06-27T00:52:05.182Z,55.00
2018-06-27T00:53:10.128Z,55.00
2018-06-27T00:54:15.052Z,55.00
2018-06-27T00:55:19.839Z,55.00
2018-06-27T00:56:24.638Z,55.00
2018-06-27T00:57:29.515Z,55.00
2018-06-27T00:58:34.380Z,55.00
2018-06-27T00:59:39.370Z,55.00
2018-06-27T01:00:44.346Z,55.00
2018-06-27T01:01:49.301Z,55.00
2018-06-27T01:02:54.292Z,55.00
2018-06-27T01:03:59.308Z,55.00
2018-06-27T01:05:04.364Z,55.00
2018-06-27T01:06:09.269Z,55.00
2018-06-27T01:07:14.271Z,54.90
2018-06-27T01:08:19.081Z,54.90
2018-06-27T01:09:23.981Z,54.90
2018-06-27T01:10:29.129Z,54.90
2018-06-27T01:11:34.068Z,55.20
2018-06-27T01:12:38.879Z,54.90
2018-06-27T01:13:43.883Z,54.90
2018-06-27T01:14:48.794Z,54.90
2018-06-27T01:15:53.748Z,54.90
2018-06-27T01:16:58.725Z,54.90
2018-06-27T01:18:03.628Z,54.90
2018-06-27T01:19:08.789Z,54.90
2018-06-27T01:20:13.653Z,54.90
2018-06-27T01:21:18.574Z,54.90
2018-06-27T01:22:23.518Z,54.90
2018-06-27T01:23:28.433Z,55.00
2018-06-27T01:24:33.455Z,54.90
2018-06-27T01:25:38.462Z,54.90
2018-06-27T01:26:43.359Z,54.90
2018-06-27T01:27:48.261Z,54.90
2018-06-27T01:28:53.128Z,54.90
2018-06-27T01:29:58.135Z,54.90
2018-06-27T01:31:03.157Z,54.90
2018-06-27T01:32:08.318Z,54.90
2018-06-27T01:33:13.095Z,54.90
2018-06-27T01:34:18.018Z,54.90
2018-06-27T01:35:23.045Z,54.90
2018-06-27T01:36:28.005Z,55.00
2018-06-27T01:37:32.942Z,54.90
2018-06-27T01:38:37.720Z,54.90
2018-06-27T01:39:42.508Z,54.90
2018-06-27T01:40:47.574Z,54.90
2018-06-27T01:41:52.366Z,54.90
2018-06-27T01:42:57.393Z,54.90
2018-06-27T01:44:02.362Z,54.90
2018-06-27T01:45:07.159Z,54.80
2018-06-27T01:46:12.040Z,54.90
2018-06-27T01:47:16.861Z,54.80
2018-06-27T01:48:21.833Z,54.90
2018-06-27T01:49:26.679Z,54.90
2018-06-27T01:50:31.598Z,54.90
2018-06-27T01:51:36.455Z,54.90
2018-06-27T01:52:41.349Z,54.90
2018-06-27T01:53:46.299Z,54.80
2018-06-27T01:54:51.320Z,54.90
2018-06-27T01:55:56.220Z,54.80
2018-06-27T01:57:01.097Z,54.70
2018-06-27T01:58:06.095Z,54.80
2018-06-27T01:59:11.154Z,54.90
2018-06-27T02:00:16.231Z,54.90
2018-06-27T02:01:21.212Z,54.80
2018-06-27T02:02:26.207Z,54.80
2018-06-27T02:03:31.030Z,54.90
2018-06-27T02:04:35.859Z,54.70
2018-06-27T02:05:40.834Z,54.80
2018-06-27T02:06:45.631Z,54.80
2018-06-27T02:07:50.478Z,54.80
2018-06-27T02:08:55.463Z,54.80
2018-06-27T02:10:00.352Z,54.80
2018-06-27T02:11:05.230Z,54.80
2018-06-27T02:12:10.095Z,54.80
2018-06-27T02:13:15.018Z,54.80
2018-06-27T02:14:19.982Z,54.80
2018-06-27T02:15:24.943Z,54.80
2018-06-27T02:16:30.006Z,54.80
2018-06-27T02:17:34.906Z,54.80
2018-06-27T02:18:39.756Z,54.80
2018-06-27T02:19:44.724Z,54.80
2018-06-27T02:20:49.500Z,54.80
2018-06-27T02:21:54.349Z,54.80
2018-06-27T02:22:59.314Z,54.80
2018-06-27T02:24:04.289Z,54.80
2018-06-27T02:25:09.111Z,54.80
2018-06-27T02:26:14.099Z,54.80
2018-06-27T02:27:19.054Z,54.80
2018-06-27T02:28:24.063Z,54.80
2018-06-27T02:29:29.032Z,54.80
2018-06-27T02:30:34.064Z,54.80
2018-06-27T02:31:39.121Z,54.70
2018-06-27T02:32:44.193Z,54.80
2018-06-27T02:33:49.206Z,54.80
2018-06-27T02:34:54.208Z,54.70
2018-06-27T02:35:59.323Z,54.70
2018-06-27T02:37:04.379Z,54.70
2018-06-27T02:38:09.381Z,54.70
2018-06-27T02:39:14.352Z,54.70
2018-06-27T02:40:19.324Z,54.70
2018-06-27T02:41:24.203Z,54.70
2018-06-27T02:42:29.193Z,54.70
2018-06-27T02:43:34.041Z,54.70
2018-06-27T02:44:39.035Z,54.70
2018-06-27T02:45:43.933Z,54.60
2018-06-27T02:46:48.824Z,54.70
2018-06-27T02:47:53.789Z,54.60
2018-06-27T02:48:58.652Z,54.70
2018-06-27T02:50:03.569Z,54.70
2018-06-27T02:51:08.589Z,54.70
2018-06-27T02:52:13.478Z,54.70
2018-06-27T02:53:18.455Z,54.80
2018-06-27T02:54:23.422Z,54.60
2018-06-27T02:55:28.438Z,54.70
2018-06-27T02:56:33.479Z,54.70
2018-06-27T02:57:38.417Z,54.70
2018-06-27T02:58:43.277Z,54.70
2018-06-27T02:59:48.192Z,54.70
2018-06-27T03:00:53.126Z,54.70
2018-06-27T03:01:58.082Z,54.60
2018-06-27T03:03:03.048Z,54.70
2018-06-27T03:04:07.921Z,54.70
2018-06-27T03:05:12.849Z,54.60
2018-06-27T03:06:17.811Z,54.60
2018-06-27T03:07:22.817Z,54.70
2018-06-27T03:08:27.994Z,54.60
2018-06-27T03:09:33.089Z,55.30
2018-06-27T03:10:38.132Z,54.70
2018-06-27T03:11:43.040Z,54.70
2018-06-27T03:12:48.056Z,54.60
2018-06-27T03:13:53.170Z,54.60
2018-06-27T03:14:57.997Z,54.60
2018-06-27T03:16:02.964Z,54.60
2018-06-27T03:17:07.825Z,54.70
2018-06-27T03:18:12.685Z,54.70
2018-06-27T03:19:17.544Z,54.60
2018-06-27T03:20:22.593Z,54.70
2018-06-27T03:21:27.505Z,54.60
2018-06-27T03:22:32.460Z,54.70
2018-06-27T03:23:37.467Z,54.60
2018-06-27T03:24:42.326Z,54.70
2018-06-27T03:25:47.280Z,54.60
2018-06-27T03:26:52.281Z,54.50
2018-06-27T03:27:57.241Z,54.60
2018-06-27T03:29:02.237Z,54.60
2018-06-27T03:30:07.221Z,54.60
2018-06-27T03:31:12.066Z,54.60
2018-06-27T03:32:17.036Z,54.50
2018-06-27T03:33:22.032Z,54.70
2018-06-27T03:34:26.895Z,54.50
2018-06-27T03:35:31.929Z,54.60
2018-06-27T03:36:36.933Z,54.60
2018-06-27T03:37:41.976Z,54.60
2018-06-27T03:38:46.979Z,54.60
2018-06-27T03:39:51.957Z,54.50
2018-06-27T03:40:56.951Z,54.60
2018-06-27T03:42:01.859Z,54.60
2018-06-27T03:43:06.901Z,54.60
2018-06-27T03:44:12.006Z,54.60
2018-06-27T03:45:17.165Z,54.60
2018-06-27T03:46:22.185Z,54.60
2018-06-27T03:47:28.316Z,54.50
2018-06-27T03:48:33.360Z,54.60
2018-06-27T03:49:38.393Z,54.60
2018-06-27T03:50:44.119Z,54.60
2018-06-27T03:51:49.153Z,54.60
2018-06-27T03:52:54.153Z,54.50
2018-06-27T03:53:59.208Z,54.60
2018-06-27T03:55:04.190Z,55.20
2018-06-27T03:56:09.165Z,54.50
2018-06-27T03:57:14.135Z,54.50
2018-06-27T03:58:19.064Z,54.50
2018-06-27T03:59:24.033Z,54.60
2018-06-27T04:00:29.090Z,54.60
2018-06-27T04:01:34.025Z,54.50
2018-06-27T04:02:39.114Z,54.60
2018-06-27T04:03:44.048Z,54.60
2018-06-27T04:04:48.981Z,54.60
2018-06-27T04:05:54.084Z,54.60
2018-06-27T04:06:58.984Z,54.50
2018-06-27T04:08:04.627Z,54.50
2018-06-27T04:09:09.677Z,54.60
2018-06-27T04:10:14.661Z,54.50
2018-06-27T04:11:19.654Z,54.60
2018-06-27T04:12:24.621Z,54.60
2018-06-27T04:13:29.734Z,54.60
2018-06-27T04:14:34.636Z,54.60
2018-06-27T04:15:39.545Z,54.60
2018-06-27T04:16:44.647Z,54.50
2018-06-27T04:17:49.708Z,54.60
2018-06-27T04:18:54.592Z,54.60
2018-06-27T04:19:59.470Z,54.50
2018-06-27T04:21:04.501Z,54.60
2018-06-27T04:22:09.411Z,54.50
2018-06-27T04:23:14.451Z,54.60
2018-06-27T04:24:19.316Z,54.50
2018-06-27T04:25:24.416Z,54.60
2018-06-27T04:26:29.365Z,54.60
2018-06-27T04:27:34.333Z,54.50
2018-06-27T04:28:39.227Z,54.50
2018-06-27T04:29:44.162Z,54.80
2018-06-27T04:30:49.170Z,54.50
2018-06-27T04:31:54.027Z,54.60
2018-06-27T04:32:58.977Z,54.50
2018-06-27T04:34:03.915Z,54.60
2018-06-27T04:35:08.811Z,54.60
2018-06-27T04:36:13.868Z,54.50
2018-06-27T04:37:18.697Z,54.60
2018-06-27T04:38:23.564Z,54.60
2018-06-27T04:39:29.334Z,54.60
2018-06-27T04:40:34.358Z,54.70
2018-06-27T04:41:39.147Z,54.50
2018-06-27T04:42:43.958Z,54.60
2018-06-27T04:43:48.802Z,54.60
2018-06-27T04:44:53.723Z,54.70
2018-06-27T04:45:58.866Z,54.50
2018-06-27T04:47:03.731Z,54.70
2018-06-27T04:48:08.699Z,54.70
2018-06-27T04:49:13.676Z,54.70
2018-06-27T04:50:18.696Z,54.70
2018-06-27T04:51:23.767Z,54.70
2018-06-27T04:52:28.679Z,54.70
2018-06-27T04:53:33.796Z,54.60
2018-06-27T04:54:38.829Z,55.30
2018-06-27T04:55:43.783Z,54.60
2018-06-27T04:56:48.668Z,54.70
2018-06-27T04:57:53.595Z,54.70
2018-06-27T04:58:58.505Z,54.70
2018-06-27T05:00:03.529Z,54.70
2018-06-27T05:01:08.379Z,54.70
2018-06-27T05:02:13.340Z,54.70
2018-06-27T05:03:18.187Z,54.70
2018-06-27T05:04:23.060Z,54.70
2018-06-27T05:05:27.885Z,54.70
2018-06-27T05:06:32.775Z,54.70
2018-06-27T05:07:37.791Z,54.70
2018-06-27T05:08:42.664Z,54.70
2018-06-27T05:09:47.636Z,54.60
2018-06-27T05:10:52.493Z,54.70
2018-06-27T05:11:57.476Z,54.70
2018-06-27T05:13:02.485Z,54.60
2018-06-27T05:14:07.536Z,54.70
2018-06-27T05:15:12.378Z,54.70
2018-06-27T05:16:17.372Z,54.70
2018-06-27T05:17:22.245Z,54.70
2018-06-27T05:18:27.271Z,54.70
2018-06-27T05:19:32.179Z,54.70
2018-06-27T05:20:37.091Z,54.70
2018-06-27T05:21:42.042Z,54.70
2018-06-27T05:22:46.916Z,54.70
2018-06-27T05:23:51.911Z,54.70
2018-06-27T05:24:56.841Z,54.70
2018-06-27T05:26:01.824Z,54.70
2018-06-27T05:27:06.695Z,54.70
2018-06-27T05:28:11.612Z,54.70
2018-06-27T05:29:16.622Z,54.60
2018-06-27T05:30:21.531Z,54.70
2018-06-27T05:31:26.651Z,54.70
2018-06-27T05:32:31.710Z,54.70
2018-06-27T05:33:36.717Z,54.70
2018-06-27T05:34:41.660Z,54.80
2018-06-27T05:35:46.649Z,54.70
2018-06-27T05:36:51.542Z,54.70
2018-06-27T05:37:56.502Z,54.70
2018-06-27T05:39:01.393Z,54.70
2018-06-27T05:40:06.331Z,54.70
2018-06-27T05:41:11.324Z,54.70
2018-06-27T05:42:16.278Z,54.70
2018-06-27T05:43:21.229Z,54.70
2018-06-27T05:44:26.160Z,54.70
2018-06-27T05:45:31.099Z,54.70
2018-06-27T05:46:36.117Z,54.80
2018-06-27T05:47:41.129Z,54.80
2018-06-27T05:48:46.147Z,54.80
2018-06-27T05:49:51.160Z,54.80
2018-06-27T05:50:56.254Z,54.80
2018-06-27T05:52:01.222Z,54.80
2018-06-27T05:53:06.187Z,54.90
2018-06-27T05:54:11.029Z,54.90
2018-06-27T05:55:16.034Z,54.90
2018-06-27T05:56:21.072Z,55.00
2018-06-27T05:57:26.095Z,55.00
2018-06-27T05:58:31.098Z,55.10
2018-06-27T05:59:36.125Z,55.20
2018-06-27T06:00:41.144Z,55.30
2018-06-27T06:01:46.034Z,55.30
2018-06-27T06:02:50.956Z,55.40
2018-06-27T06:03:56.001Z,55.50
2018-06-27T06:05:01.068Z,55.50
2018-06-27T06:06:05.985Z,55.50
2018-06-27T06:07:11.137Z,55.50
2018-06-27T06:08:16.899Z,55.60
2018-06-27T06:09:21.849Z,55.60
2018-06-27T06:10:26.802Z,55.60
2018-06-27T06:11:31.864Z,55.60
2018-06-27T06:12:36.849Z,55.60
2018-06-27T06:13:41.849Z,55.60
2018-06-27T06:14:46.749Z,55.60
2018-06-27T06:15:51.780Z,55.60
2018-06-27T06:16:56.805Z,55.60
2018-06-27T06:18:01.810Z,55.60
2018-06-27T06:19:06.709Z,55.60
2018-06-27T06:20:11.589Z,55.60
2018-06-27T06:21:16.428Z,55.60
2018-06-27T06:22:21.392Z,55.60
2018-06-27T06:23:26.320Z,55.70
2018-06-27T06:24:31.205Z,55.70
2018-06-27T06:25:36.150Z,55.70
2018-06-27T06:26:41.092Z,55.70
2018-06-27T06:27:46.081Z,55.70
2018-06-27T06:28:51.066Z,55.70
2018-06-27T06:29:56.012Z,55.70
2018-06-27T06:31:01.044Z,55.70
2018-06-27T06:32:06.013Z,55.70
2018-06-27T06:33:10.882Z,55.70
2018-06-27T06:34:16.304Z,55.60
2018-06-27T06:35:21.333Z,55.60
2018-06-27T06:36:26.383Z,55.50
2018-06-27T06:37:31.346Z,55.50
2018-06-27T06:38:36.175Z,55.50
2018-06-27T06:39:41.141Z,55.50
2018-06-27T06:40:46.269Z,55.50
2018-06-27T06:41:51.184Z,55.60
2018-06-27T06:42:56.160Z,55.50
2018-06-27T06:44:01.045Z,55.40
2018-06-27T06:45:05.971Z,55.40
2018-06-27T06:46:10.943Z,55.30
2018-06-27T06:47:15.829Z,55.30
2018-06-27T06:48:20.823Z,55.20
2018-06-27T06:49:25.797Z,55.20
2018-06-27T06:50:30.682Z,55.20
2018-06-27T06:51:35.506Z,55.10
2018-06-27T06:52:40.326Z,55.10
2018-06-27T06:53:45.173Z,55.00
2018-06-27T06:54:50.082Z,55.00
2018-06-27T06:55:55.027Z,54.80
2018-06-27T06:57:00.020Z,54.80
2018-06-27T06:58:04.942Z,54.90
2018-06-27T06:59:09.872Z,54.90
2018-06-27T07:00:14.840Z,54.90
2018-06-27T07:01:19.755Z,54.90
2018-06-27T07:02:24.687Z,54.80
2018-06-27T07:03:29.644Z,54.80
2018-06-27T07:04:34.629Z,54.80
2018-06-27T07:05:39.440Z,54.80
2018-06-27T07:06:44.215Z,54.70
2018-06-27T07:07:49.138Z,54.70
2018-06-27T07:08:54.089Z,54.70
2018-06-27T07:09:58.885Z,54.70
2018-06-27T07:11:03.768Z,54.70
2018-06-27T07:12:08.766Z,54.70
2018-06-27T07:13:13.720Z,54.70
2018-06-27T07:14:18.769Z,54.70
2018-06-27T07:15:23.576Z,54.70
2018-06-27T07:16:28.838Z,54.60
2018-06-27T07:17:33.719Z,54.60
2018-06-27T07:18:38.622Z,54.60
2018-06-27T07:19:43.495Z,54.60
2018-06-27T07:20:48.457Z,54.60
2018-06-27T07:21:53.466Z,54.60
2018-06-27T07:22:58.508Z,54.60
2018-06-27T07:24:03.559Z,54.60
2018-06-27T07:25:08.481Z,54.60
2018-06-27T07:26:13.437Z,54.60
2018-06-27T07:27:18.312Z,54.50
2018-06-27T07:28:23.286Z,54.50
2018-06-27T07:29:28.249Z,54.50
2018-06-27T07:30:33.082Z,54.50
2018-06-27T07:31:38.017Z,54.50
2018-06-27T07:32:42.994Z,54.40
2018-06-27T07:33:47.967Z,54.50
2018-06-27T07:34:52.807Z,54.40
2018-06-27T07:35:57.806Z,54.40
2018-06-27T07:37:02.852Z,54.40
2018-06-27T07:38:07.828Z,54.30
2018-06-27T07:39:12.813Z,54.30
2018-06-27T07:40:17.910Z,54.30
2018-06-27T07:41:22.862Z,54.30
2018-06-27T07:42:27.769Z,54.30
2018-06-27T07:43:32.688Z,54.30
2018-06-27T07:44:37.682Z,54.30
2018-06-27T07:45:42.679Z,54.30
2018-06-27T07:46:47.676Z,54.30
2018-06-27T07:47:52.494Z,54.30
2018-06-27T07:48:57.444Z,54.20
2018-06-27T07:50:02.598Z,54.20
2018-06-27T07:51:07.591Z,54.20
2018-06-27T07:52:12.473Z,54.20
2018-06-27T07:53:17.346Z,54.20
2018-06-27T07:54:22.408Z,54.20
2018-06-27T07:55:27.404Z,54.10
2018-06-27T07:56:32.370Z,54.10
2018-06-27T07:57:37.598Z,54.00
2018-06-27T07:58:42.708Z,54.00
2018-06-27T07:59:47.740Z,54.00
2018-06-27T08:00:52.674Z,53.90
2018-06-27T08:01:57.766Z,53.90
2018-06-27T08:03:03.152Z,53.90
2018-06-27T08:04:08.158Z,53.90
2018-06-27T08:05:13.210Z,53.90
2018-06-27T08:06:18.270Z,54.00
2018-06-27T08:07:23.249Z,53.80
2018-06-27T08:08:28.233Z,53.80
2018-06-27T08:09:33.246Z,53.80
2018-06-27T08:10:38.048Z,53.70
2018-06-27T08:11:42.897Z,53.70
2018-06-27T08:12:47.920Z,53.60
2018-06-27T08:13:52.741Z,53.60
2018-06-27T08:14:57.771Z,53.50
2018-06-27T08:16:02.695Z,53.50
2018-06-27T08:17:07.682Z,53.50
2018-06-27T08:18:12.555Z,53.50
2018-06-27T08:19:17.436Z,53.50
2018-06-27T08:20:22.471Z,53.50
2018-06-27T08:21:27.419Z,53.50
2018-06-27T08:22:32.446Z,53.50
2018-06-27T08:23:37.316Z,53.50
2018-06-27T08:24:42.302Z,53.50
2018-06-27T08:25:47.214Z,53.40
2018-06-27T08:26:52.286Z,53.40
2018-06-27T08:27:57.298Z,53.30
2018-06-27T08:29:02.261Z,53.30
2018-06-27T08:30:07.137Z,53.30
2018-06-27T08:31:12.162Z,53.30
2018-06-27T08:32:17.040Z,53.30
2018-06-27T08:33:22.606Z,53.30
2018-06-27T08:34:27.627Z,53.30
2018-06-27T08:35:33.309Z,53.20
2018-06-27T08:36:38.281Z,53.30
2018-06-27T08:37:43.178Z,53.20
2018-06-27T08:38:48.144Z,53.20
2018-06-27T08:39:53.103Z,53.30
2018-06-27T08:40:58.084Z,53.30
2018-06-27T08:42:03.101Z,53.20
2018-06-27T08:43:07.929Z,53.20
2018-06-27T08:44:12.923Z,53.30
2018-06-27T08:45:17.894Z,53.20
2018-06-27T08:46:22.841Z,53.20
2018-06-27T08:47:27.850Z,53.20
2018-06-27T08:48:32.724Z,53.30
2018-06-27T08:49:37.725Z,53.20
2018-06-27T08:50:42.814Z,53.20
2018-06-27T08:51:48.302Z,53.20
2018-06-27T08:52:53.444Z,53.20
2018-06-27T08:53:58.638Z,53.20
2018-06-27T08:55:03.785Z,53.20
2018-06-27T08:56:08.806Z,53.10
2018-06-27T08:57:13.716Z,53.10
2018-06-27T08:58:18.707Z,53.10
2018-06-27T08:59:23.617Z,53.10
2018-06-27T09:00:28.525Z,53.10
2018-06-27T09:01:33.505Z,53.10
2018-06-27T09:02:38.362Z,53.10
2018-06-27T09:03:43.210Z,53.00
2018-06-27T09:04:48.242Z,53.00
2018-06-27T09:05:53.296Z,53.00
2018-06-27T09:06:58.119Z,53.00
2018-06-27T09:08:03.118Z,53.00
2018-06-27T09:09:08.065Z,53.00
2018-06-27T09:10:13.072Z,53.00
2018-06-27T09:11:18.006Z,52.90
2018-06-27T09:12:22.966Z,52.90
2018-06-27T09:13:27.860Z,52.90
2018-06-27T09:14:33.551Z,52.90
2018-06-27T09:15:38.581Z,52.90
2018-06-27T09:16:43.575Z,52.80
2018-06-27T09:17:48.505Z,52.90
2018-06-27T09:18:53.714Z,52.80
2018-06-27T09:19:58.685Z,52.80
2018-06-27T09:21:03.733Z,52.70
2018-06-27T09:22:08.645Z,52.70
2018-06-27T09:23:13.495Z,52.70
2018-06-27T09:24:18.629Z,52.70
2018-06-27T09:25:23.459Z,52.70
2018-06-27T09:26:28.462Z,52.70
2018-06-27T09:27:33.753Z,52.70
2018-06-27T09:28:38.718Z,52.70
2018-06-27T09:29:43.629Z,52.60
2018-06-27T09:30:48.662Z,52.70
2018-06-27T09:31:53.775Z,52.60
2018-06-27T09:32:58.981Z,52.60
2018-06-27T09:34:04.100Z,52.60
2018-06-27T09:35:09.090Z,52.60
2018-06-27T09:36:14.126Z,52.60
2018-06-27T09:37:19.256Z,52.60
2018-06-27T09:38:24.163Z,52.60
2018-06-27T09:39:29.172Z,52.60
2018-06-27T09:40:34.257Z,52.60
2018-06-27T09:41:39.313Z,52.50
2018-06-27T09:42:44.319Z,52.50
2018-06-27T09:43:49.357Z,52.50
2018-06-27T09:44:54.347Z,52.50
2018-06-27T09:45:59.320Z,52.50
2018-06-27T09:47:04.199Z,52.40
2018-06-27T09:48:09.192Z,52.40
2018-06-27T09:49:14.154Z,52.50
2018-06-27T09:50:19.017Z,52.40
2018-06-27T09:51:24.999Z,52.50
2018-06-27T09:52:32.257Z,52.50
2018-06-27T09:53:37.142Z,52.40
2018-06-27T09:54:42.110Z,52.30
2018-06-27T09:55:46.974Z,52.40
2018-06-27T09:56:51.907Z,52.40
2018-06-27T09:57:57.235Z,52.40
2018-06-27T09:59:02.269Z,52.40
2018-06-27T10:00:07.114Z,52.40
2018-06-27T10:01:12.063Z,52.30
2018-06-27T10:02:16.955Z,52.30
2018-06-27T10:03:21.806Z,52.30
2018-06-27T10:04:26.657Z,52.30
2018-06-27T10:05:31.502Z,52.20
2018-06-27T10:06:36.372Z,52.20
2018-06-27T10:07:41.594Z,52.30
2018-06-27T10:08:46.343Z,52.20
2018-06-27T10:09:51.190Z,52.20
2018-06-27T10:10:56.140Z,52.20
2018-06-27T10:12:01.024Z,52.20
2018-06-27T10:13:06.077Z,52.20
2018-06-27T10:14:11.151Z,52.20
2018-06-27T10:15:16.050Z,52.10
2018-06-27T10:16:20.945Z,52.20
2018-06-27T10:17:25.956Z,52.20
2018-06-27T10:18:30.820Z,52.20
2018-06-27T10:19:35.863Z,52.20
2018-06-27T10:20:40.843Z,52.20
2018-06-27T10:21:45.763Z,52.20
2018-06-27T10:22:50.717Z,52.20
2018-06-27T10:23:55.678Z,52.20
2018-06-27T10:25:00.583Z,52.10
2018-06-27T10:26:05.593Z,52.20
2018-06-27T10:27:10.478Z,52.10
2018-06-27T10:28:15.470Z,52.10
2018-06-27T10:29:20.407Z,52.10
2018-06-27T10:30:25.402Z,52.10
2018-06-27T10:31:30.209Z,52.10
2018-06-27T10:32:35.090Z,52.10
2018-06-27T10:33:39.937Z,52.10
2018-06-27T10:34:44.955Z,52.10
2018-06-27T10:35:50.038Z,52.10
2018-06-27T10:36:54.898Z,52.10
2018-06-27T10:37:59.791Z,52.10
2018-06-27T10:39:04.859Z,52.00
2018-06-27T10:40:09.852Z,51.90
2018-06-27T10:41:14.864Z,51.90
2018-06-27T10:42:19.929Z,51.80
2018-06-27T10:43:24.806Z,52.00
2018-06-27T10:44:29.704Z,51.90
2018-06-27T10:45:34.859Z,52.00
2018-06-27T10:46:39.929Z,52.00
2018-06-27T10:47:45.025Z,51.90
2018-06-27T10:48:50.050Z,51.80
2018-06-27T10:49:55.011Z,51.90
2018-06-27T10:50:59.963Z,51.90
2018-06-27T10:52:04.962Z,51.90
2018-06-27T10:53:09.986Z,51.40
2018-06-27T10:54:15.078Z,51.10
2018-06-27T10:55:19.953Z,51.30
2018-06-27T10:56:24.877Z,51.40
2018-06-27T10:57:29.740Z,51.60
2018-06-27T10:58:34.521Z,51.70
2018-06-27T10:59:39.335Z,51.70
2018-06-27T11:00:44.156Z,51.80
2018-06-27T11:01:48.976Z,51.90
2018-06-27T11:02:54.000Z,51.90
2018-06-27T11:03:59.009Z,51.90
2018-06-27T11:05:04.039Z,51.80
2018-06-27T11:06:08.974Z,51.80
2018-06-27T11:07:13.947Z,51.90
2018-06-27T11:08:18.871Z,51.90
2018-06-27T11:09:23.731Z,51.80
2018-06-27T11:10:28.547Z,51.80
2018-06-27T11:11:33.556Z,52.50
2018-06-27T11:12:38.553Z,52.00
2018-06-27T11:13:43.551Z,51.80
2018-06-27T11:14:48.538Z,51.80
2018-06-27T11:15:53.473Z,51.80
2018-06-27T11:16:58.420Z,51.80
2018-06-27T11:18:03.380Z,52.40
2018-06-27T11:19:08.352Z,51.80
2018-06-27T11:20:13.205Z,51.80
2018-06-27T11:21:18.040Z,51.80
2018-06-27T11:22:22.851Z,51.80
2018-06-27T11:23:27.769Z,51.70
2018-06-27T11:24:32.740Z,51.70
2018-06-27T11:25:37.737Z,51.70
2018-06-27T11:26:42.753Z,51.80
2018-06-27T11:27:47.608Z,51.70
2018-06-27T11:28:53.551Z,51.70
2018-06-27T11:29:58.450Z,51.70
2018-06-27T11:31:03.441Z,51.80
2018-06-27T11:32:08.395Z,51.70
2018-06-27T11:33:13.309Z,51.70
2018-06-27T11:34:18.203Z,51.70
2018-06-27T11:35:23.121Z,51.70
2018-06-27T11:36:27.995Z,51.70
2018-06-27T11:37:32.821Z,51.70
2018-06-27T11:38:37.813Z,51.70
2018-06-27T11:39:42.591Z,51.70
2018-06-27T11:40:47.438Z,51.60
2018-06-27T11:41:52.365Z,51.60
2018-06-27T11:42:57.122Z,51.60
2018-06-27T11:44:02.116Z,51.60
2018-06-27T11:45:07.001Z,51.60
2018-06-27T11:46:11.879Z,51.60
2018-06-27T11:47:16.695Z,51.60
2018-06-27T11:48:21.518Z,51.60
2018-06-27T11:49:26.486Z,51.60
2018-06-27T11:50:31.527Z,51.60
2018-06-27T11:51:36.503Z,51.60
2018-06-27T11:52:41.407Z,51.50
2018-06-27T11:53:46.269Z,51.50
2018-06-27T11:54:51.237Z,51.50
2018-06-27T11:55:56.276Z,51.50
2018-06-27T11:57:01.217Z,51.50
2018-06-27T11:58:05.990Z,51.50
2018-06-27T11:59:10.811Z,51.50
2018-06-27T12:00:15.661Z,51.50
2018-06-27T12:01:20.504Z,51.50
2018-06-27T12:02:25.601Z,51.50
2018-06-27T12:03:30.543Z,51.50
2018-06-27T12:04:35.497Z,51.50
2018-06-27T12:05:40.486Z,51.50
2018-06-27T12:06:45.577Z,51.40
2018-06-27T12:07:50.946Z,51.40
2018-06-27T12:08:55.911Z,51.50
2018-06-27T12:10:00.979Z,51.50
2018-06-27T12:11:06.150Z,51.40
2018-06-27T12:12:11.316Z,51.40
2018-06-27T12:13:16.378Z,51.40
2018-06-27T12:14:21.555Z,51.50
2018-06-27T12:15:26.785Z,51.40
2018-06-27T12:16:31.812Z,51.40
2018-06-27T12:17:36.696Z,51.40
2018-06-27T12:18:41.671Z,51.40
2018-06-27T12:19:46.724Z,51.40
2018-06-27T12:20:52.596Z,51.50
2018-06-27T12:21:57.739Z,51.40
2018-06-27T12:23:03.292Z,51.40
2018-06-27T12:24:08.316Z,51.40
2018-06-27T12:25:13.249Z,51.40
2018-06-27T12:26:18.247Z,51.40
2018-06-27T12:27:23.224Z,51.40
2018-06-27T12:28:28.228Z,51.40
2018-06-27T12:29:33.206Z,51.40
2018-06-27T12:30:38.205Z,52.10
2018-06-27T12:31:43.222Z,51.40
2018-06-27T12:32:48.168Z,51.40
2018-06-27T12:33:53.059Z,51.30
2018-06-27T12:34:58.019Z,51.50
2018-06-27T12:36:02.919Z,51.40
2018-06-27T12:37:07.778Z,51.40
2018-06-27T12:38:12.837Z,51.30
2018-06-27T12:39:18.042Z,51.30
2018-06-27T12:40:22.916Z,51.30
2018-06-27T12:41:27.824Z,51.30
2018-06-27T12:42:32.648Z,51.30
2018-06-27T12:43:37.701Z,51.30
2018-06-27T12:44:42.748Z,51.40
2018-06-27T12:45:47.615Z,51.40
2018-06-27T12:46:52.618Z,51.40
2018-06-27T12:47:57.520Z,51.40
2018-06-27T12:49:02.516Z,51.40
2018-06-27T12:50:07.553Z,51.40
2018-06-27T12:51:12.367Z,51.40
2018-06-27T12:52:17.320Z,51.40
2018-06-27T12:53:22.342Z,51.40
2018-06-27T12:54:27.312Z,51.40
2018-06-27T12:55:32.360Z,51.40
2018-06-27T12:56:37.462Z,51.30
2018-06-27T12:57:42.318Z,51.40
2018-06-27T12:58:47.376Z,51.30
2018-06-27T12:59:52.473Z,51.40
2018-06-27T13:00:57.268Z,51.30
2018-06-27T13:02:02.250Z,51.30
2018-06-27T13:03:07.042Z,51.40
2018-06-27T13:04:12.020Z,51.30
2018-06-27T13:05:17.032Z,51.30
2018-06-27T13:06:22.128Z,51.30
2018-06-27T13:07:27.290Z,51.30
2018-06-27T13:08:32.200Z,51.30
2018-06-27T13:09:37.090Z,51.40
2018-06-27T13:10:42.219Z,51.30
2018-06-27T13:11:47.288Z,51.40
2018-06-27T13:12:52.148Z,51.30
2018-06-27T13:13:57.172Z,51.30
2018-06-27T13:15:02.225Z,51.30
2018-06-27T13:16:07.227Z,51.30
2018-06-27T13:17:12.199Z,51.30
2018-06-27T13:18:17.022Z,51.30
2018-06-27T13:19:22.066Z,51.30
2018-06-27T13:20:27.059Z,51.40
2018-06-27T13:21:31.955Z,51.30
2018-06-27T13:22:37.000Z,51.30
2018-06-27T13:23:41.902Z,52.00
2018-06-27T13:24:46.868Z,51.30
2018-06-27T13:25:51.919Z,51.30
2018-06-27T13:26:57.630Z,51.30
2018-06-27T13:28:03.288Z,51.30
2018-06-27T13:29:08.403Z,51.30
2018-06-27T13:30:13.554Z,51.30
2018-06-27T13:31:18.534Z,51.30
2018-06-27T13:32:23.653Z,51.30
2018-06-27T13:33:28.623Z,51.30
2018-06-27T13:34:33.747Z,51.30
2018-06-27T13:35:38.768Z,51.30
2018-06-27T13:36:43.803Z,51.30
2018-06-27T13:37:48.753Z,51.30
2018-06-27T13:38:54.417Z,51.30
2018-06-27T13:39:59.407Z,51.30
2018-06-27T13:41:04.428Z,51.30
2018-06-27T13:42:09.481Z,51.30
2018-06-27T13:43:14.448Z,51.30
2018-06-27T13:44:19.341Z,51.30
2018-06-27T13:45:24.153Z,51.20
2018-06-27T13:46:29.285Z,51.20
2018-06-27T13:47:34.298Z,51.20
2018-06-27T13:48:39.234Z,51.30
2018-06-27T13:49:44.142Z,51.30
2018-06-27T13:50:48.972Z,51.20
2018-06-27T13:51:53.930Z,51.20
2018-06-27T13:52:58.935Z,51.20
2018-06-27T13:54:03.839Z,51.20
2018-06-27T13:55:09.523Z,51.20
2018-06-27T13:56:14.357Z,51.30